createdAt,value
2022-08-01T00:01:00.938Z,73.75
2022-08-01T00:03:49.496Z,74.37
2022-08-01T00:06:37.970Z,72.53
2022-08-01T00:09:26.411Z,71.32
2022-08-01T00:12:16.316Z,72.05
2022-08-01T00:15:06.569Z,71.63
2022-08-01T00:17:55.271Z,72.15
2022-08-01T00:20:43.832Z,72.93
2022-08-01T00:23:32.627Z,72.22
2022-08-01T00:26:21.164Z,73.03
2022-08-01T00:30:01.096Z,72.85
2022-08-01T00:32:19.260Z,72.40
2022-08-01T00:35:08.255Z,71.95
2022-08-01T00:37:56.842Z,71.85
2022-08-01T00:40:45.406Z,72.05
2022-08-01T00:43:33.892Z,71.67
2022-08-01T00:46:23.676Z,71.53
2022-08-01T00:49:12.257Z,71.83
2022-08-01T00:52:01.292Z,72.87
2022-08-01T00:54:50.481Z,72.70
2022-08-01T00:58:02.601Z,72.22
2022-08-01T01:00:52.895Z,72.85
2022-08-01T01:03:58.488Z,72.07
2022-08-01T01:06:58.264Z,73.00
2022-08-01T01:09:52.934Z,74.33
2022-08-01T01:12:56.962Z,72.60
2022-08-01T01:15:49.850Z,73.43
2022-08-01T01:18:43.989Z,71.83
2022-08-01T01:21:48.294Z,72.13
2022-08-01T01:24:44.910Z,72.63
2022-08-01T01:27:44.912Z,73.20
2022-08-01T01:30:35.882Z,72.97
2022-08-01T01:33:29.374Z,71.85
2022-08-01T01:36:20.507Z,71.63
2022-08-01T01:39:09.191Z,71.33
2022-08-01T01:42:00.080Z,70.67
2022-08-01T01:44:50.762Z,69.80
2022-08-01T01:47:42.019Z,69.82
2022-08-01T01:50:31.835Z,71.20
2022-08-01T01:53:24.775Z,70.53
2022-08-01T01:56:16.147Z,71.17
2022-08-01T01:59:06.813Z,71.63
2022-08-01T02:02:05.446Z,71.88
2022-08-01T02:04:57.259Z,72.50
2022-08-01T02:07:46.899Z,72.27
2022-08-01T02:10:38.421Z,72.97
2022-08-01T02:13:27.234Z,72.57
2022-08-01T02:16:17.975Z,74.05
2022-08-01T02:19:06.561Z,74.23
2022-08-01T02:22:02.144Z,74.03
2022-08-01T02:24:56.750Z,73.73
2022-08-01T02:27:49.973Z,74.33
2022-08-01T02:30:44.079Z,75.03
2022-08-01T02:33:38.984Z,76.77
2022-08-01T02:36:33.034Z,75.40
2022-08-01T02:39:24.534Z,75.37
2022-08-01T02:42:15.302Z,77.03
2022-08-01T02:45:06.604Z,76.90
2022-08-01T02:47:59.858Z,76.87
2022-08-01T02:50:51.669Z,77.67
2022-08-01T02:53:45.018Z,78.83
2022-08-01T02:56:39.378Z,78.23
2022-08-01T02:59:30.865Z,80.60
2022-08-01T03:02:20.264Z,79.63
2022-08-01T03:05:10.500Z,78.57
2022-08-01T03:08:02.709Z,79.33
2022-08-01T03:10:54.733Z,77.70
2022-08-01T03:13:47.437Z,77.63
2022-08-01T03:16:37.919Z,78.53
2022-08-01T03:19:28.603Z,77.80
2022-08-01T03:22:18.152Z,76.53
2022-08-01T03:25:08.449Z,77.33
2022-08-01T03:28:00.244Z,75.90
2022-08-01T03:30:51.459Z,76.50
2022-08-01T03:33:40.031Z,76.00
2022-08-01T03:36:30.715Z,76.40
2022-08-01T03:39:21.513Z,75.33
2022-08-01T03:42:16.282Z,72.47
2022-08-01T03:45:13.357Z,75.27
2022-08-01T03:48:07.482Z,75.17
2022-08-01T03:50:56.567Z,75.67
2022-08-01T03:53:47.514Z,76.20
2022-08-01T03:56:37.138Z,77.67
2022-08-01T03:59:26.133Z,78.60
2022-08-01T04:02:16.009Z,81.27
2022-08-01T04:05:06.766Z,80.90
2022-08-01T04:07:57.306Z,82.90
2022-08-01T04:10:45.880Z,83.47
2022-08-01T04:13:36.849Z,82.73
2022-08-01T04:16:25.891Z,82.80
2022-08-01T04:19:14.395Z,83.70
2022-08-01T04:22:05.061Z,83.23
2022-08-01T04:24:58.290Z,83.37
2022-08-01T04:27:52.203Z,86.23
2022-08-01T04:30:42.475Z,89.00
2022-08-01T04:33:33.508Z,87.20
2022-08-01T04:36:25.528Z,84.80
2022-08-01T04:39:18.114Z,82.93
2022-08-01T04:42:07.764Z,79.07
2022-08-01T04:44:56.438Z,77.73
2022-08-01T04:47:45.851Z,76.57
2022-08-01T04:50:34.845Z,76.97
2022-08-01T04:53:23.955Z,77.30
2022-08-01T04:56:14.805Z,76.40
2022-08-01T04:59:20.896Z,78.27
2022-08-01T05:02:10.447Z,79.57
2022-08-01T05:04:58.822Z,79.47
2022-08-01T05:07:47.321Z,79.73
2022-08-01T05:10:35.871Z,79.77
2022-08-01T05:13:25.759Z,81.33
2022-08-01T05:16:14.252Z,78.73
2022-08-01T05:19:03.681Z,76.93
2022-08-01T05:21:52.119Z,75.87
2022-08-01T05:24:41.638Z,74.80
2022-08-01T05:27:30.151Z,74.33
2022-08-01T05:30:21.137Z,75.37
2022-08-01T05:33:09.693Z,72.83
2022-08-01T05:35:58.190Z,70.65
2022-08-01T05:38:47.350Z,73.23
2022-08-01T05:41:36.003Z,73.43
2022-08-01T05:44:24.280Z,76.10
2022-08-01T05:47:14.245Z,76.68
2022-08-01T05:50:02.743Z,74.07
2022-08-01T05:52:51.413Z,74.20
2022-08-01T05:55:39.715Z,73.93
2022-08-01T05:58:28.242Z,71.78
2022-08-01T06:01:16.647Z,67.65
2022-08-01T06:04:06.935Z,63.00
2022-08-01T06:06:55.309Z,60.38
2022-08-01T06:09:43.649Z,60.25
2022-08-01T06:12:35.715Z,62.20
2022-08-01T06:15:24.361Z,61.47
2022-08-01T06:18:12.880Z,58.22
2022-08-01T06:21:02.637Z,57.83
2022-08-01T06:23:51.103Z,57.70
2022-08-01T06:26:39.501Z,55.40
2022-08-01T06:29:27.873Z,55.33
2022-08-01T06:32:26.322Z,53.60
2022-08-01T06:35:16.215Z,50.80
2022-08-01T06:38:06.103Z,46.60
2022-08-01T06:40:54.503Z,44.35
2022-08-01T06:43:43.223Z,42.40
2022-08-01T06:46:32.524Z,41.53
2022-08-01T06:49:21.774Z,42.63
2022-08-01T06:52:10.716Z,37.05
2022-08-01T06:55:00.885Z,34.97
2022-08-01T06:57:51.175Z,34.58
2022-08-01T07:00:39.530Z,34.67
2022-08-01T07:03:52.742Z,34.25
2022-08-01T07:06:36.715Z,32.47
2022-08-01T07:09:25.243Z,32.65
2022-08-01T07:12:14.955Z,30.33
2022-08-01T07:15:04.763Z,28.10
2022-08-01T07:17:53.079Z,27.73
2022-08-01T07:20:51.106Z,26.80
2022-08-01T07:23:46.115Z,23.70
2022-08-01T07:26:34.901Z,23.08
2022-08-01T07:29:25.694Z,20.33
2022-08-01T07:32:14.173Z,19.33
2022-08-01T07:35:02.683Z,18.75
2022-08-01T07:37:51.108Z,19.88
2022-08-01T07:40:39.671Z,16.70
2022-08-01T07:43:28.078Z,16.80
2022-08-01T07:46:18.240Z,16.65
2022-08-01T07:49:06.653Z,13.57
2022-08-01T07:52:13.718Z,14.13
2022-08-01T07:55:02.490Z,14.13
2022-08-01T07:57:51.190Z,12.52
2022-08-01T08:00:39.700Z,12.40
2022-08-01T08:03:29.512Z,11.00
2022-08-01T08:06:17.841Z,7.90
2022-08-01T08:09:06.267Z,8.55
2022-08-01T08:11:54.599Z,6.80
2022-08-01T08:14:43.016Z,6.95
2022-08-01T08:17:35.569Z,6.30
2022-08-01T08:20:28.211Z,5.50
2022-08-01T08:23:42.088Z,5.60
2022-08-01T08:26:32.032Z,5.25
2022-08-01T08:29:20.665Z,5.63
2022-08-01T08:32:11.020Z,6.20
2022-08-01T08:34:59.640Z,5.20
2022-08-01T08:37:53.262Z,5.10
2022-08-01T08:40:44.566Z,4.50
2022-08-01T08:43:33.069Z,4.60
2022-08-01T08:46:28.275Z,5.03
2022-08-01T08:49:19.568Z,5.20
2022-08-01T08:52:08.893Z,5.47
2022-08-01T08:55:00.514Z,4.65
2022-08-01T08:57:50.022Z,4.30
2022-08-01T09:00:38.613Z,4.07
2022-08-01T09:03:27.205Z,3.67
2022-08-01T09:06:15.709Z,4.28
2022-08-01T09:09:04.694Z,4.25
2022-08-01T09:11:57.445Z,3.78
2022-08-01T09:14:48.038Z,3.72
2022-08-01T09:17:43.456Z,3.80
2022-08-01T09:20:35.714Z,4.07
2022-08-01T09:23:34.136Z,3.47
2022-08-01T09:26:30.976Z,4.43
2022-08-01T09:29:36.260Z,3.80
2022-08-01T09:32:28.485Z,3.78
2022-08-01T09:35:30.161Z,3.58
2022-08-01T09:38:21.710Z,3.65
2022-08-01T09:41:10.153Z,3.70
2022-08-01T09:44:02.768Z,3.92
2022-08-01T09:46:56.631Z,3.80
2022-08-01T09:49:51.950Z,3.55
2022-08-01T09:52:41.566Z,3.85
2022-08-01T09:55:30.226Z,3.75
2022-08-01T09:58:18.613Z,3.83
2022-08-01T10:01:08.822Z,3.63
2022-08-01T10:04:12.997Z,3.55
2022-08-01T10:07:07.853Z,4.00
2022-08-01T10:09:56.645Z,3.70
2022-08-01T10:12:46.002Z,3.65
2022-08-01T10:15:38.183Z,3.75
2022-08-01T10:18:28.416Z,3.28
2022-08-01T10:21:44.020Z,3.30
2022-08-01T10:24:30.135Z,3.15
2022-08-01T10:27:24.727Z,2.95
2022-08-01T10:30:26.611Z,3.58
2022-08-01T10:33:20.008Z,3.40
2022-08-01T10:36:27.509Z,3.20
2022-08-01T10:39:20.062Z,3.80
2022-08-01T10:42:15.947Z,2.97
2022-08-01T10:45:06.247Z,3.28
2022-08-01T10:48:02.454Z,3.10
2022-08-01T10:50:56.296Z,3.08
2022-08-01T10:53:50.492Z,2.80
2022-08-01T10:56:46.260Z,3.22
2022-08-01T10:59:50.652Z,2.92
2022-08-01T11:03:01.758Z,3.10
2022-08-01T11:05:54.452Z,3.10
2022-08-01T11:08:44.780Z,3.28
2022-08-01T11:12:01.116Z,3.45
2022-08-01T11:15:29.096Z,3.90
2022-08-01T11:18:37.787Z,3.25
2022-08-01T11:22:02.116Z,3.60
2022-08-01T11:25:01.164Z,3.35
2022-08-01T11:28:29.045Z,3.50
2022-08-01T11:31:37.491Z,2.90
2022-08-01T11:34:56.941Z,3.50
2022-08-01T11:37:45.813Z,3.00
2022-08-01T11:40:34.273Z,3.55
2022-08-01T11:43:24.181Z,3.20
2022-08-01T11:46:13.893Z,3.17
2022-08-01T11:49:29.132Z,3.65
2022-08-01T11:52:21.175Z,3.30
2022-08-01T11:55:11.917Z,3.30
2022-08-01T11:58:06.712Z,2.92
2022-08-01T12:01:00.463Z,3.60
2022-08-01T12:03:58.050Z,3.50
2022-08-01T12:06:46.752Z,3.55
2022-08-01T12:09:39.310Z,3.53
2022-08-01T12:12:28.224Z,3.40
2022-08-01T12:15:17.945Z,3.72
2022-08-01T12:18:09.124Z,3.63
2022-08-01T12:21:05.878Z,3.40
2022-08-01T12:24:02.880Z,3.60
2022-08-01T12:26:51.312Z,3.50
2022-08-01T12:29:41.558Z,3.10
2022-08-01T12:32:35.498Z,3.88
2022-08-01T12:35:27.281Z,3.83
2022-08-01T12:38:18.577Z,3.30
2022-08-01T12:41:12.292Z,3.78
2022-08-01T12:44:00.924Z,3.75
2022-08-01T12:46:49.627Z,3.60
2022-08-01T12:49:39.310Z,3.95
2022-08-01T12:52:29.233Z,4.18
2022-08-01T12:55:20.041Z,4.15
2022-08-01T12:58:15.847Z,4.00
2022-08-01T13:01:06.936Z,4.85
2022-08-01T13:04:02.814Z,3.60
2022-08-01T13:06:55.588Z,3.38
2022-08-01T13:09:52.662Z,3.75
2022-08-01T13:12:42.348Z,3.90
2022-08-01T13:15:35.718Z,3.75
2022-08-01T13:18:31.538Z,4.45
2022-08-01T13:21:22.178Z,4.20
2022-08-01T13:24:12.062Z,3.50
2022-08-01T13:27:05.143Z,3.90
2022-08-01T13:29:54.518Z,3.67
2022-08-01T13:32:45.193Z,3.83
2022-08-01T13:35:33.746Z,4.25
2022-08-01T13:38:42.850Z,3.83
2022-08-01T13:41:35.520Z,4.03
2022-08-01T13:44:25.314Z,4.32
2022-08-01T13:47:15.854Z,4.07
2022-08-01T13:50:05.997Z,4.47
2022-08-01T13:52:54.645Z,4.38
2022-08-01T13:55:43.096Z,4.70
2022-08-01T13:58:31.545Z,4.43
2022-08-01T14:01:21.676Z,3.88
2022-08-01T14:04:10.385Z,4.05
2022-08-01T14:07:00.394Z,4.05
2022-08-01T14:10:04.545Z,4.20
2022-08-01T14:12:59.902Z,4.10
2022-08-01T14:15:51.118Z,4.03
2022-08-01T14:18:44.534Z,3.80
2022-08-01T14:21:33.547Z,4.00
2022-08-01T14:24:21.987Z,3.83
2022-08-01T14:27:10.656Z,4.35
2022-08-01T14:30:02.569Z,3.95
2022-08-01T14:32:51.960Z,4.47
2022-08-01T14:36:06.755Z,4.28
2022-08-01T14:38:51.046Z,4.20
2022-08-01T14:41:39.450Z,4.13
2022-08-01T14:44:33.044Z,4.35
2022-08-01T14:47:22.610Z,4.22
2022-08-01T14:50:13.555Z,4.28
2022-08-01T14:53:03.390Z,4.75
2022-08-01T14:55:51.867Z,4.43
2022-08-01T14:58:40.284Z,4.70
2022-08-01T15:01:28.801Z,4.07
2022-08-01T15:04:18.513Z,4.13
2022-08-01T15:07:06.920Z,4.18
2022-08-01T15:09:57.341Z,4.00
2022-08-01T15:12:50.511Z,4.18
2022-08-01T15:15:39.123Z,3.80
2022-08-01T15:18:27.813Z,4.15
2022-08-01T15:21:34.262Z,4.40
2022-08-01T15:24:25.122Z,4.38
2022-08-01T15:27:15.029Z,4.93
2022-08-01T15:30:03.608Z,3.88
2022-08-01T15:32:52.037Z,4.68
2022-08-01T15:35:40.887Z,4.57
2022-08-01T15:38:29.291Z,4.93
2022-08-01T15:41:17.893Z,5.40
2022-08-01T15:44:07.738Z,5.05
2022-08-01T15:46:56.212Z,4.95
2022-08-01T15:49:44.763Z,6.22
2022-08-01T15:52:33.207Z,5.40
2022-08-01T15:55:21.598Z,5.53
2022-08-01T15:58:11.655Z,5.38
2022-08-01T16:01:01.834Z,6.38
2022-08-01T16:03:50.438Z,5.65
2022-08-01T16:06:39.109Z,6.07
2022-08-01T16:09:27.659Z,5.55
2022-08-01T16:12:16.046Z,5.50
2022-08-01T16:15:04.780Z,5.85
2022-08-01T16:17:54.625Z,5.90
2022-08-01T16:20:50.248Z,5.55
2022-08-01T16:23:39.000Z,4.93
2022-08-01T16:26:28.291Z,4.80
2022-08-01T16:29:16.716Z,5.60
2022-08-01T16:32:16.990Z,5.55
2022-08-01T16:35:16.589Z,5.57
2022-08-01T16:38:05.769Z,5.50
2022-08-01T16:40:55.661Z,5.72
2022-08-01T16:43:46.132Z,5.10
2022-08-01T16:46:42.553Z,5.20
2022-08-01T16:49:32.075Z,5.57
2022-08-01T16:52:22.021Z,5.78
2022-08-01T16:55:17.604Z,5.40
2022-08-01T16:58:06.110Z,5.25
2022-08-01T17:01:52.684Z,5.40
2022-08-01T17:04:09.356Z,6.32
2022-08-01T17:06:58.150Z,6.22
2022-08-01T17:09:47.948Z,5.80
2022-08-01T17:12:36.613Z,5.63
2022-08-01T17:15:25.068Z,6.32
2022-08-01T17:18:13.558Z,6.30
2022-08-01T17:21:02.060Z,5.80
2022-08-01T17:23:50.905Z,6.25
2022-08-01T17:26:40.640Z,6.53
2022-08-01T17:29:28.955Z,6.30
2022-08-01T17:32:32.765Z,6.88
2022-08-01T17:35:21.486Z,7.57
2022-08-01T17:38:09.891Z,6.65
2022-08-01T17:40:58.337Z,7.05
2022-08-01T17:43:48.255Z,7.75
2022-08-01T17:46:37.028Z,7.63
2022-08-01T17:49:52.424Z,8.23
2022-08-01T17:52:35.691Z,7.82
2022-08-01T17:55:56.457Z,7.75
2022-08-01T17:58:50.628Z,8.15
2022-08-01T18:01:45.259Z,8.65
2022-08-01T18:04:34.684Z,8.90
2022-08-01T18:08:01.215Z,8.15
2022-08-01T18:10:33.893Z,9.18
2022-08-01T18:13:22.369Z,8.60
2022-08-01T18:16:13.309Z,9.27
2022-08-01T18:19:03.526Z,10.77
2022-08-01T18:21:52.340Z,10.88
2022-08-01T18:24:40.872Z,11.48
2022-08-01T18:28:16.433Z,11.93
2022-08-01T18:30:37.691Z,12.70
2022-08-01T18:33:26.160Z,13.50
2022-08-01T18:36:32.016Z,13.57
2022-08-01T18:39:21.971Z,14.20
2022-08-01T18:42:14.085Z,13.90
2022-08-01T18:45:02.721Z,15.30
2022-08-01T18:47:51.168Z,15.05
2022-08-01T18:50:40.557Z,15.27
2022-08-01T18:53:30.518Z,16.35
2022-08-01T18:56:19.165Z,17.05
2022-08-01T18:59:07.955Z,17.75
2022-08-01T19:01:56.350Z,19.52
2022-08-01T19:04:45.341Z,19.17
2022-08-01T19:08:05.140Z,18.92
2022-08-01T19:10:44.704Z,19.33
2022-08-01T19:13:33.242Z,20.05
2022-08-01T19:16:21.776Z,20.08
2022-08-01T19:19:10.516Z,19.52
2022-08-01T19:21:59.377Z,19.85
2022-08-01T19:47:18.917Z,21.10
2022-08-01T19:50:08.249Z,20.95
2022-08-01T19:52:58.959Z,20.83
2022-08-01T19:55:48.591Z,20.50
2022-08-01T19:58:40.217Z,21.10
2022-08-01T20:01:29.161Z,21.20
2022-08-01T20:04:19.876Z,20.58
2022-08-01T20:07:09.285Z,21.27
2022-08-01T20:09:58.404Z,22.02
2022-08-01T20:12:47.943Z,22.53
2022-08-01T20:15:36.340Z,22.42
2022-08-01T20:18:25.321Z,23.02
2022-08-01T20:21:15.814Z,23.13
2022-08-01T20:24:04.808Z,22.85
2022-08-01T20:26:55.821Z,22.92
2022-08-01T20:29:46.115Z,23.48
2022-08-01T20:32:43.331Z,23.10
2022-08-01T20:35:51.097Z,25.20
2022-08-01T20:38:43.581Z,25.80
2022-08-01T20:41:32.678Z,26.45
2022-08-01T20:44:22.033Z,27.80
2022-08-01T20:47:10.791Z,30.23
2022-08-01T20:50:29.448Z,31.55
2022-08-01T20:53:28.351Z,32.77
2022-08-01T20:56:26.668Z,34.88
2022-08-01T20:59:39.973Z,36.15
2022-08-01T21:02:42.677Z,36.85
2022-08-01T21:05:33.582Z,37.10
2022-08-01T21:08:25.293Z,38.05
2022-08-01T21:11:22.002Z,37.78
2022-08-01T21:14:13.472Z,38.85
2022-08-01T21:17:08.405Z,39.40
2022-08-01T21:20:01.245Z,40.50
2022-08-01T21:23:05.866Z,41.20
2022-08-01T21:25:55.275Z,41.88
2022-08-01T21:28:53.860Z,42.83
2022-08-01T21:31:43.177Z,42.72
2022-08-01T21:34:31.915Z,43.05
2022-08-01T21:37:20.291Z,44.35
2022-08-01T21:40:11.449Z,44.70
2022-08-01T21:43:01.996Z,45.45
2022-08-01T21:45:57.891Z,44.67
2022-08-01T21:48:47.983Z,45.83
2022-08-01T21:51:43.695Z,45.85
2022-08-01T21:54:41.729Z,46.65
2022-08-01T21:57:45.311Z,46.75
2022-08-01T22:00:37.599Z,46.80
2022-08-01T22:03:36.210Z,45.97
2022-08-01T22:06:25.950Z,46.70
2022-08-01T22:09:15.367Z,45.97
2022-08-01T22:12:08.127Z,46.63
2022-08-01T22:14:58.709Z,45.53
2022-08-01T22:17:49.708Z,45.22
2022-08-01T22:20:39.618Z,45.33
2022-08-01T22:23:28.858Z,44.38
2022-08-01T22:26:17.674Z,44.70
2022-08-01T22:29:06.821Z,45.28
2022-08-01T22:31:57.026Z,45.75
2022-08-01T22:34:45.503Z,46.03
2022-08-01T22:37:56.998Z,46.60
2022-08-01T22:40:49.472Z,46.58
2022-08-01T22:43:42.910Z,47.05
2022-08-01T22:46:46.238Z,48.40
2022-08-01T22:49:41.360Z,48.08
2022-08-01T22:52:31.529Z,48.45
2022-08-01T22:55:22.562Z,49.05
2022-08-01T22:58:12.984Z,49.92
2022-08-01T23:01:02.966Z,49.35
2022-08-01T23:03:53.528Z,51.05
2022-08-01T23:06:44.162Z,49.80
2022-08-01T23:09:39.191Z,50.90
2022-08-01T23:12:45.547Z,51.88
2022-08-01T23:15:35.083Z,52.53
2022-08-01T23:18:24.734Z,52.75
2022-08-01T23:21:14.727Z,51.38
2022-08-01T23:24:06.238Z,52.33
2022-08-01T23:26:55.484Z,51.63
2022-08-01T23:29:47.912Z,50.75
2022-08-01T23:32:36.704Z,51.30
2022-08-01T23:35:25.779Z,51.97
2022-08-01T23:38:16.003Z,52.95
2022-08-01T23:41:15.003Z,52.50
2022-08-01T23:44:03.484Z,53.42
2022-08-01T23:46:54.895Z,53.63
2022-08-01T23:49:53.116Z,52.67
2022-08-01T23:52:48.224Z,53.90
2022-08-01T23:55:38.362Z,55.42
2022-08-01T23:58:26.851Z,55.58
